Here is the Quick Look data you requested

The Data originates at the National Weather Service, and is made available here by the UAlbany Department of Atmospheric and Environmental Sciences

Surface Observations

KNAK 190754Z AUTO 33010KT 10SM CLR 02/M06 A3048 RMK AO2 SLP323 T00221061 $=
KILG 190751Z AUTO 33012KT 10SM CLR M01/M08 A3046 RMK AO2 SLP316 T10111083=
KDCA 190752Z 35010KT 10SM FEW160 01/M07 A3049 RMK AO2 SLP324 T00061067=
KIAD 190752Z 35010KT 10SM SCT250 M01/M08 A3048 RMK AO2 SLP324 T10061083=
KDAA 190756Z AUTO 33008G14KT 10SM CLR 01/M09 A3049 RMK AO2 SLP329 T00071088 $=
KEZF 190755Z AUTO 33009KT 10SM SCT050 02/M04 A3048 RMK AO2 T00211041=
KHEF 190756Z AUTO 35010KT 10SM CLR M01/M06 A3049 RMK AO2 SLP339 T10061061 PNO $=
KRIC 190754Z 33004KT 10SM BKN240 02/M04 A3047 RMK AO2 SLP322 T00221039=
KOKV 190755Z AUTO 32007KT 10SM CLR M02/M08 A3050 RMK AO2=
KMRB 190753Z AUTO 32008KT 10SM CLR M02/M10 A3048 RMK AO2 SLP329 T10221100=
KCHO 190753Z AUTO 10SM OVC045 04/M06 A3046 RMK AO2 SLP315 T00391056 $=
KNYG 190756Z AUTO 01007KT 10SM CLR 02/M06 A3051 RMK AO2 SLP332 T00171056 $=
KWAL 190754Z AUTO 33009KT 10SM CLR 02/M07 A3046 RMK AO2 SLP312 T00171067=
KCXY 190756Z AUTO 31008KT 10SM CLR M03/M11 A3049 RMK AO2 SLP328 T10281111=
KADW 190756Z AUTO 32011G19KT 10SM CLR 00/M07 A3046 RMK AO2 SLP324 T10031071 $=
KBWI 190754Z 34003KT 10SM SCT250 M01/M08 A3048 RMK AO2 SLP322 T10111078=
KDMH 190754Z AUTO 00/M09 A3048 RMK AO1 SLP320 T00001089=
KHGR 190753Z AUTO 32012KT 10SM CLR M03/M11 A3048 RMK AO2 SLP340 T10331106=
KNHK 190752Z AUTO 35012KT 10SM CLR 02/M06 A3047 RMK AO2 SLP319 T00171056 $=
KOXB 190753Z AUTO 33009KT 10SM CLR 01/M06 A3046 RMK AO2 SLP313 T00061061=
KSBY 190754Z AUTO 32008KT 10SM CLR 00/M06 A3046 RMK AO2 SLP317 T00001056 $=